createdAt,value
2019-04-25T00:00:38.789Z,15.38
2019-04-25T00:03:31.915Z,15.33
2019-04-25T00:06:23.136Z,15.28
2019-04-25T00:09:16.633Z,15.20
2019-04-25T00:12:06.948Z,15.17
2019-04-25T00:14:56.432Z,15.12
2019-04-25T00:17:46.222Z,15.10
2019-04-25T00:20:36.780Z,15.05
2019-04-25T00:23:26.386Z,14.98
2019-04-25T00:26:34.927Z,14.95
2019-04-25T00:29:24.280Z,14.90
2019-04-25T00:32:13.902Z,14.86
2019-04-25T00:35:03.484Z,14.81
2019-04-25T00:37:53.441Z,14.79
2019-04-25T00:40:44.514Z,14.75
2019-04-25T00:43:34.545Z,14.72
2019-04-25T00:46:24.544Z,14.66
2019-04-25T00:49:14.211Z,14.62
2019-04-25T00:52:03.840Z,14.56
2019-04-25T00:54:53.570Z,14.52
2019-04-25T00:57:44.793Z,14.48
2019-04-25T01:01:04.903Z,14.45
2019-04-25T01:03:57.541Z,14.41
2019-04-25T01:06:47.562Z,14.37
2019-04-25T01:09:37.261Z,14.32
2019-04-25T01:12:26.378Z,14.30
2019-04-25T01:15:16.658Z,14.27
2019-04-25T01:18:06.725Z,14.22
2019-04-25T01:20:56.710Z,14.19
2019-04-25T01:23:46.026Z,14.15
2019-04-25T01:26:35.914Z,14.12
2019-04-25T01:29:25.709Z,14.09
2019-04-25T01:32:18.483Z,14.07
2019-04-25T01:35:33.443Z,14.02
2019-04-25T01:38:31.469Z,14.01
2019-04-25T01:41:34.202Z,13.96
2019-04-25T01:44:27.966Z,13.92
2019-04-25T01:47:17.782Z,13.88
2019-04-25T01:50:07.169Z,13.85
2019-04-25T01:52:56.747Z,13.81
2019-04-25T01:55:55.861Z,13.77
2019-04-25T01:58:36.882Z,13.77
2019-04-25T02:01:26.020Z,13.73
2019-04-25T02:04:15.412Z,13.70
2019-04-25T02:07:04.493Z,13.67
2019-04-25T02:09:54.816Z,13.63
2019-04-25T02:12:50.389Z,13.60
2019-04-25T02:15:39.755Z,13.58
2019-04-25T02:18:29.777Z,13.55
2019-04-25T02:21:19.355Z,13.53
2019-04-25T02:24:08.915Z,13.51
2019-04-25T02:26:58.774Z,13.45
2019-04-25T02:29:48.046Z,13.41
2019-04-25T02:32:37.361Z,13.39
2019-04-25T02:35:26.652Z,13.36
2019-04-25T02:38:16.948Z,13.34
2019-04-25T02:41:09.068Z,13.31
2019-04-25T02:44:01.393Z,13.27
2019-04-25T02:47:01.004Z,13.24
2019-04-25T02:50:21.923Z,13.23
2019-04-25T02:53:30.202Z,13.19
2019-04-25T02:56:30.194Z,13.15
2019-04-25T02:59:10.137Z,13.11
2019-04-25T03:02:00.754Z,13.08
2019-04-25T03:04:50.624Z,13.04
2019-04-25T03:07:39.522Z,13.01
2019-04-25T03:10:34.778Z,12.95
2019-04-25T03:13:24.591Z,12.94
2019-04-25T03:16:14.780Z,12.91
2019-04-25T03:19:24.409Z,12.87
2019-04-25T03:22:16.088Z,12.85
2019-04-25T03:25:10.798Z,12.83
2019-04-25T03:27:59.723Z,12.80
2019-04-25T03:30:49.521Z,12.74
2019-04-25T03:33:40.598Z,12.72
2019-04-25T03:36:30.325Z,12.69
2019-04-25T03:39:19.437Z,12.67
2019-04-25T03:42:09.891Z,12.64
2019-04-25T03:44:59.393Z,12.62
2019-04-25T03:47:49.517Z,12.56
2019-04-25T03:50:41.752Z,12.55
2019-04-25T03:53:31.568Z,12.52
2019-04-25T03:56:20.926Z,12.49
2019-04-25T03:59:10.663Z,12.46
2019-04-25T04:02:01.236Z,12.44
2019-04-25T04:04:51.315Z,12.41
2019-04-25T04:07:41.157Z,12.37
2019-04-25T04:10:33.225Z,12.36
2019-04-25T04:13:24.358Z,12.33
2019-04-25T04:16:16.719Z,12.31
2019-04-25T04:19:06.960Z,12.29
2019-04-25T04:23:09.235Z,12.25
2019-04-25T04:25:58.565Z,12.23
2019-04-25T04:29:14.141Z,12.19
2019-04-25T04:32:03.739Z,12.17
2019-04-25T04:34:53.820Z,12.14
2019-04-25T04:37:43.203Z,12.12
2019-04-25T04:40:34.398Z,12.09
2019-04-25T04:43:25.519Z,12.08
2019-04-25T04:46:17.177Z,12.08
2019-04-25T04:49:06.240Z,12.06
2019-04-25T04:51:55.598Z,12.05
2019-04-25T04:54:44.427Z,12.03
2019-04-25T04:57:36.105Z,12.04
2019-04-25T05:00:26.473Z,12.05
2019-04-25T05:03:26.676Z,12.04
2019-04-25T05:06:28.427Z,12.05
2019-04-25T05:09:23.808Z,12.05
2019-04-25T05:12:15.230Z,12.06
2019-04-25T05:15:05.194Z,12.07
2019-04-25T05:17:54.729Z,12.07
2019-04-25T05:20:44.051Z,12.07
2019-04-25T05:23:34.395Z,12.10
2019-04-25T05:26:25.028Z,12.10
2019-04-25T05:29:19.776Z,12.10
2019-04-25T05:32:06.297Z,12.11
2019-04-25T05:34:56.104Z,12.14
2019-04-25T05:37:45.901Z,12.15
2019-04-25T05:40:39.468Z,12.16
2019-04-25T05:43:29.311Z,12.18
2019-04-25T05:46:19.071Z,12.22
2019-04-25T05:49:08.474Z,12.21
2019-04-25T05:51:58.137Z,12.24
2019-04-25T05:54:48.753Z,12.26
2019-04-25T05:57:45.643Z,12.31
2019-04-25T06:00:28.798Z,12.35
2019-04-25T06:03:17.711Z,12.37
2019-04-25T06:06:07.021Z,12.39
2019-04-25T06:09:04.192Z,12.41
2019-04-25T06:12:06.189Z,12.43
2019-04-25T06:14:55.518Z,12.42
2019-04-25T06:18:03.895Z,12.43
2019-04-25T06:20:54.273Z,12.49
2019-04-25T06:23:54.307Z,12.51
2019-04-25T06:26:54.143Z,12.52
2019-04-25T06:29:57.393Z,12.55
2019-04-25T06:32:36.789Z,12.54
2019-04-25T06:35:26.576Z,12.56
2019-04-25T06:38:17.326Z,12.60
2019-04-25T06:41:06.213Z,12.65
2019-04-25T06:43:57.819Z,12.71
2019-04-25T06:47:05.123Z,12.76
2019-04-25T06:49:54.841Z,12.83
2019-04-25T06:52:44.551Z,12.90
2019-04-25T06:55:34.416Z,12.97
2019-04-25T06:58:26.878Z,13.05
2019-04-25T07:01:15.397Z,13.11
2019-04-25T07:04:05.432Z,13.15
2019-04-25T07:06:54.498Z,13.20
2019-04-25T07:09:43.568Z,13.25
2019-04-25T07:12:34.793Z,13.30
2019-04-25T07:15:24.948Z,13.38
2019-04-25T07:18:15.194Z,13.47
2019-04-25T07:21:04.023Z,13.51
2019-04-25T07:23:56.167Z,13.57
2019-04-25T07:27:07.269Z,13.68
2019-04-25T07:30:31.586Z,13.79
2019-04-25T07:33:17.418Z,13.95
2019-04-25T07:36:06.235Z,14.10
2019-04-25T07:39:07.655Z,14.23
2019-04-25T07:41:47.529Z,14.38
2019-04-25T07:44:49.316Z,14.52
2019-04-25T07:47:27.776Z,14.64
2019-04-25T07:50:16.915Z,14.75
2019-04-25T07:53:06.790Z,14.82
2019-04-25T07:55:56.406Z,14.90
2019-04-25T07:58:52.129Z,14.97
2019-04-25T08:01:39.074Z,15.00
2019-04-25T08:04:29.058Z,15.01
2019-04-25T08:07:18.436Z,15.01
2019-04-25T08:10:08.384Z,15.04
2019-04-25T08:12:58.108Z,14.99
2019-04-25T08:15:53.835Z,14.93
2019-04-25T08:18:43.448Z,14.94
2019-04-25T08:21:34.405Z,14.91
2019-04-25T08:24:25.523Z,14.89
2019-04-25T08:27:15.630Z,14.89
2019-04-25T08:30:06.088Z,14.85
2019-04-25T08:32:55.974Z,14.88
2019-04-25T08:36:03.638Z,14.87
2019-04-25T08:38:38.148Z,14.89
2019-04-25T08:41:28.277Z,14.90
2019-04-25T08:44:17.918Z,14.89
2019-04-25T08:47:07.721Z,14.87
2019-04-25T08:50:10.688Z,14.91
2019-04-25T08:53:00.020Z,14.89
2019-04-25T08:56:06.819Z,14.91
2019-04-25T08:59:08.341Z,14.92
2019-04-25T09:02:08.160Z,14.93
2019-04-25T09:05:16.137Z,14.98
2019-04-25T09:08:05.997Z,15.05
2019-04-25T09:10:55.942Z,15.08
2019-04-25T09:13:45.288Z,15.14
2019-04-25T09:16:36.602Z,15.21
2019-04-25T09:19:28.699Z,15.29
2019-04-25T09:22:18.380Z,15.34
2019-04-25T09:25:08.283Z,15.39
2019-04-25T09:27:58.262Z,15.45
2019-04-25T09:30:48.815Z,15.48
2019-04-25T09:33:39.081Z,15.49
2019-04-25T09:36:29.341Z,15.55
2019-04-25T09:39:27.059Z,15.60
2019-04-25T09:42:17.574Z,15.66
2019-04-25T09:45:26.505Z,15.74
2019-04-25T09:48:28.916Z,15.82
2019-04-25T09:51:35.873Z,15.93
2019-04-25T09:54:40.546Z,16.05
2019-04-25T09:58:01.675Z,16.18
2019-04-25T10:00:55.365Z,16.34
2019-04-25T10:03:45.640Z,16.55
2019-04-25T10:06:37.325Z,16.70
2019-04-25T10:09:27.195Z,16.82
2019-04-25T10:12:16.928Z,16.90
2019-04-25T10:15:39.197Z,17.01
2019-04-25T10:18:28.941Z,17.14
2019-04-25T10:21:18.208Z,17.31
2019-04-25T10:24:07.907Z,17.45
2019-04-25T10:26:57.680Z,17.63
2019-04-25T10:29:53.483Z,17.82
2019-04-25T10:32:38.304Z,18.01
2019-04-25T10:35:28.363Z,18.18
2019-04-25T10:38:17.880Z,18.39
2019-04-25T10:41:07.517Z,18.53
2019-04-25T10:43:57.262Z,18.74
2019-04-25T10:46:47.346Z,18.86
2019-04-25T10:49:37.029Z,19.11
2019-04-25T10:52:26.496Z,19.30
2019-04-25T10:55:15.389Z,19.49
2019-04-25T10:58:04.712Z,19.73
2019-04-25T11:00:54.246Z,19.84
2019-04-25T11:03:50.500Z,20.05
2019-04-25T11:06:40.855Z,20.21
2019-04-25T11:09:31.262Z,20.36
2019-04-25T11:12:21.113Z,20.43
2019-04-25T11:15:10.783Z,20.47
2019-04-25T11:17:59.916Z,20.59
2019-04-25T11:20:55.294Z,20.68
2019-04-25T11:23:47.679Z,20.72
2019-04-25T11:26:37.059Z,20.72
2019-04-25T11:29:26.209Z,20.84
2019-04-25T11:32:19.798Z,21.02
2019-04-25T11:35:08.237Z,21.17
2019-04-25T11:38:00.491Z,21.24
2019-04-25T11:41:03.865Z,21.41
2019-04-25T11:43:55.228Z,21.62
2019-04-25T11:46:45.351Z,21.76
2019-04-25T11:49:34.750Z,21.92
2019-04-25T11:52:28.302Z,22.01
2019-04-25T11:55:15.501Z,22.17
2019-04-25T11:58:04.872Z,22.32
2019-04-25T12:00:57.630Z,22.32
2019-04-25T12:03:46.580Z,22.35
2019-04-25T12:06:35.936Z,22.41
2019-04-25T12:09:25.559Z,22.51
2019-04-25T12:12:15.292Z,22.59
2019-04-25T12:15:04.783Z,22.61
2019-04-25T12:17:54.981Z,22.58
2019-04-25T12:20:46.556Z,22.51
2019-04-25T12:23:37.187Z,22.46
2019-04-25T12:26:26.663Z,22.41
2019-04-25T12:29:15.703Z,22.32
2019-04-25T12:32:05.294Z,22.32
2019-04-25T12:34:54.627Z,22.28
2019-04-25T12:37:44.270Z,22.29
2019-04-25T12:40:34.348Z,22.26
2019-04-25T12:43:25.845Z,22.20
2019-04-25T12:46:31.310Z,22.13
2019-04-25T12:49:20.972Z,22.09
2019-04-25T12:52:11.408Z,22.02
2019-04-25T12:55:01.969Z,21.96
2019-04-25T12:57:54.915Z,21.91
2019-04-25T13:00:49.538Z,21.83
2019-04-25T13:03:34.668Z,21.81
2019-04-25T13:06:24.835Z,21.73
2019-04-25T13:09:14.784Z,21.69
2019-04-25T13:12:05.888Z,21.61
2019-04-25T13:14:55.471Z,21.48
2019-04-25T13:17:45.636Z,21.40
2019-04-25T13:20:35.006Z,21.32
2019-04-25T13:23:24.501Z,21.27
2019-04-25T13:26:14.133Z,21.21
2019-04-25T13:29:23.168Z,21.21
2019-04-25T13:32:33.283Z,21.23
2019-04-25T13:35:26.812Z,21.28
2019-04-25T13:38:16.191Z,21.35
2019-04-25T13:41:06.256Z,21.34
2019-04-25T13:43:55.201Z,21.34
2019-04-25T13:46:44.293Z,21.30
2019-04-25T13:49:33.539Z,21.24
2019-04-25T13:52:23.862Z,21.19
2019-04-25T13:55:13.697Z,21.14
2019-04-25T13:58:04.245Z,21.06
2019-04-25T14:00:56.187Z,20.95
2019-04-25T14:03:46.232Z,20.85
2019-04-25T14:06:35.110Z,20.78
2019-04-25T14:09:25.978Z,20.69
2019-04-25T14:12:16.654Z,20.61
2019-04-25T14:15:08.374Z,20.52
2019-04-25T14:18:08.400Z,20.41
2019-04-25T14:21:04.801Z,20.34
2019-04-25T14:23:54.146Z,20.22
2019-04-25T14:26:43.416Z,20.09
2019-04-25T14:29:32.395Z,19.93
2019-04-25T14:32:24.226Z,19.79
2019-04-25T14:35:14.386Z,19.65
2019-04-25T14:38:04.400Z,19.50
2019-04-25T14:40:54.003Z,19.40
2019-04-25T14:43:46.322Z,19.32
2019-04-25T14:46:35.662Z,19.18
2019-04-25T14:49:26.290Z,19.09
2019-04-25T14:52:16.313Z,18.99
2019-04-25T14:55:24.557Z,18.91
2019-04-25T14:58:15.939Z,18.82
2019-04-25T15:01:05.678Z,18.74
2019-04-25T15:03:54.869Z,18.65
2019-04-25T15:06:44.818Z,18.57
2019-04-25T15:09:35.382Z,18.50
2019-04-25T15:12:25.208Z,18.44
2019-04-25T15:15:16.053Z,18.39
2019-04-25T15:18:05.747Z,18.37
2019-04-25T15:20:55.429Z,18.34
2019-04-25T15:23:44.361Z,18.30
2019-04-25T15:26:33.963Z,18.28
2019-04-25T15:29:22.826Z,18.22
2019-04-25T15:32:15.091Z,18.19
2019-04-25T15:35:04.987Z,18.16
2019-04-25T15:38:00.085Z,18.12
2019-04-25T15:41:21.793Z,18.08
2019-04-25T15:44:29.026Z,18.06
2019-04-25T15:47:21.828Z,18.02
2019-04-25T15:50:11.396Z,17.97
2019-04-25T15:53:00.806Z,17.92
2019-04-25T15:55:50.138Z,17.89
2019-04-25T15:58:41.603Z,17.85
2019-04-25T16:01:31.270Z,17.83
2019-04-25T16:04:20.279Z,17.79
2019-04-25T16:07:10.638Z,17.77
2019-04-25T16:09:59.969Z,17.75
2019-04-25T16:12:50.915Z,17.72
2019-04-25T16:15:41.390Z,17.69
2019-04-25T16:18:30.590Z,17.66
2019-04-25T16:21:19.852Z,17.62
2019-04-25T16:24:09.856Z,17.59
2019-04-25T16:26:59.701Z,17.57
2019-04-25T16:29:49.248Z,17.53
2019-04-25T16:32:38.728Z,17.50
2019-04-25T16:35:28.598Z,17.48
2019-04-25T16:38:19.261Z,17.46
2019-04-25T16:41:08.181Z,17.45
2019-04-25T16:44:03.262Z,17.43
2019-04-25T16:46:52.713Z,17.42
2019-04-25T16:49:42.764Z,17.40
2019-04-25T16:52:32.177Z,17.39
2019-04-25T16:55:21.836Z,17.37
2019-04-25T16:58:11.501Z,17.35
2019-04-25T17:01:06.877Z,17.35
2019-04-25T17:03:58.073Z,17.33
2019-04-25T17:06:47.725Z,17.33
2019-04-25T17:09:36.849Z,17.32
2019-04-25T17:12:27.174Z,17.30
2019-04-25T17:15:32.004Z,17.28
2019-04-25T17:18:24.626Z,17.25
2019-04-25T17:21:14.211Z,17.23
2019-04-25T17:24:03.813Z,17.21
2019-04-25T17:26:53.579Z,17.18
2019-04-25T17:29:43.323Z,17.15
2019-04-25T17:32:53.960Z,17.12
2019-04-25T17:35:52.260Z,17.08
2019-04-25T17:38:48.104Z,17.04
2019-04-25T17:41:40.502Z,17.00
2019-04-25T17:44:30.375Z,16.96
2019-04-25T17:47:20.341Z,16.92
2019-04-25T17:50:09.365Z,16.87
2019-04-25T17:52:59.479Z,16.83
2019-04-25T17:55:48.461Z,16.80
2019-04-25T17:58:39.149Z,16.76
2019-04-25T18:01:28.665Z,16.71
2019-04-25T18:04:17.469Z,16.66
2019-04-25T18:07:07.032Z,16.61
2019-04-25T18:09:56.185Z,16.55
2019-04-25T18:12:45.269Z,16.51
2019-04-25T18:15:54.044Z,16.46
2019-04-25T18:19:05.114Z,16.39
2019-04-25T18:21:57.665Z,16.35
2019-04-25T18:25:15.190Z,16.32
2019-04-25T18:28:13.865Z,16.28
2019-04-25T18:31:04.093Z,16.22
2019-04-25T18:33:56.980Z,16.19
2019-04-25T18:37:10.593Z,16.15
2019-04-25T18:40:13.032Z,16.12
2019-04-25T18:43:17.140Z,16.08
2019-04-25T18:46:11.202Z,16.04
2019-04-25T18:49:02.113Z,16.02
2019-04-25T18:51:57.635Z,15.97
2019-04-25T18:54:50.157Z,15.94
2019-04-25T18:57:47.297Z,15.91
2019-04-25T19:01:03.511Z,15.85
2019-04-25T19:03:59.333Z,15.82
2019-04-25T19:06:56.203Z,15.78
2019-04-25T19:09:39.393Z,15.74
2019-04-25T19:12:30.010Z,15.71
2019-04-25T19:15:20.087Z,15.67
2019-04-25T19:18:09.802Z,15.65
2019-04-25T19:20:58.768Z,15.60
2019-04-25T19:23:48.130Z,15.56
2019-04-25T19:26:39.421Z,15.54
2019-04-25T19:29:28.090Z,15.50
2019-04-25T19:32:18.070Z,15.48
2019-04-25T19:35:07.785Z,15.47
2019-04-25T19:37:58.987Z,15.43
2019-04-25T19:41:03.686Z,15.42
2019-04-25T19:44:00.741Z,15.39
2019-04-25T19:46:51.424Z,15.36
2019-04-25T19:49:43.645Z,15.34
2019-04-25T19:52:33.477Z,15.32
2019-04-25T19:55:24.675Z,15.29
2019-04-25T19:58:13.971Z,15.27
2019-04-25T20:01:03.772Z,15.24
2019-04-25T20:04:10.939Z,15.23
2019-04-25T20:07:16.317Z,15.19
2019-04-25T20:10:37.883Z,15.17
2019-04-25T20:13:26.809Z,15.12
2019-04-25T20:16:16.268Z,15.11
2019-04-25T20:19:09.410Z,15.08
2019-04-25T20:21:58.079Z,15.06
2019-04-25T20:24:48.260Z,15.03
2019-04-25T20:27:38.235Z,15.00
2019-04-25T20:30:27.336Z,14.98
2019-04-25T20:33:17.523Z,14.95
2019-04-25T20:36:17.226Z,14.93
2019-04-25T20:38:57.509Z,14.88
2019-04-25T20:41:48.119Z,14.86
2019-04-25T20:44:38.739Z,14.82
2019-04-25T20:47:28.920Z,14.79
2019-04-25T20:50:18.469Z,14.76
2019-04-25T20:53:08.551Z,14.73
2019-04-25T20:55:58.413Z,14.69
2019-04-25T20:58:49.103Z,14.66
2019-04-25T21:01:39.103Z,14.61
2019-04-25T21:04:41.708Z,14.58
2019-04-25T21:07:31.173Z,14.54
2019-04-25T21:10:20.705Z,14.49
2019-04-25T21:13:13.891Z,14.47
2019-04-25T21:16:11.404Z,14.43
2019-04-25T21:19:10.511Z,14.41
2019-04-25T21:22:01.073Z,14.39
2019-04-25T21:24:51.633Z,14.37
2019-04-25T21:27:41.550Z,14.33
2019-04-25T21:30:31.637Z,14.30
2019-04-25T21:33:20.836Z,14.26
2019-04-25T21:36:10.676Z,14.23
2019-04-25T21:39:01.955Z,14.21
2019-04-25T21:42:00.345Z,14.18
2019-04-25T21:44:50.288Z,14.15
2019-04-25T21:47:43.515Z,14.12
2019-04-25T21:50:36.230Z,14.10
2019-04-25T21:53:29.071Z,14.07
2019-04-25T21:56:20.932Z,14.05
2019-04-25T21:59:12.500Z,14.03
2019-04-25T22:02:02.568Z,14.01
2019-04-25T22:04:55.818Z,13.98
2019-04-25T22:07:46.113Z,13.95
2019-04-25T22:10:38.106Z,13.93
2019-04-25T22:13:29.049Z,13.93
2019-04-25T22:16:21.022Z,13.91
2019-04-25T22:19:11.571Z,13.89
2019-04-25T22:22:00.912Z,13.87
2019-04-25T22:24:50.533Z,13.86
2019-04-25T22:27:41.038Z,13.84
2019-04-25T22:30:30.324Z,13.83
2019-04-25T22:33:28.521Z,13.81
2019-04-25T22:36:20.479Z,13.80
2019-04-25T22:39:11.151Z,13.79
2019-04-25T22:42:01.904Z,13.76
2019-04-25T22:44:51.583Z,13.75
2019-04-25T22:47:41.138Z,13.73
2019-04-25T22:50:31.207Z,13.72
2019-04-25T22:53:23.206Z,13.70
2019-04-25T22:56:12.760Z,13.69
2019-04-25T22:59:02.015Z,13.68
2019-04-25T23:01:59.667Z,13.66
2019-04-25T23:05:15.065Z,13.64
2019-04-25T23:08:03.089Z,13.61
2019-04-25T23:10:54.133Z,13.60
2019-04-25T23:13:44.194Z,13.58
2019-04-25T23:16:35.854Z,13.55
2019-04-25T23:19:25.756Z,13.54
2019-04-25T23:22:17.017Z,13.53
2019-04-25T23:25:10.587Z,13.51
2019-04-25T23:28:14.939Z,13.50
2019-04-25T23:31:19.650Z,13.48
2019-04-25T23:34:15.276Z,13.45
2019-04-25T23:37:07.724Z,13.43
2019-04-25T23:40:00.743Z,13.42
2019-04-25T23:42:52.530Z,13.41
2019-04-25T23:45:41.661Z,13.40
2019-04-25T23:48:32.066Z,13.38
2019-04-25T23:51:21.659Z,13.36
2019-04-25T23:54:11.444Z,13.36
2019-04-25T23:57:01.089Z,13.34
2019-04-25T23:59:50.111Z,13.32
